Time;durP1;ratioP1;P1;durP2;ratioP2;P2;SDS_P1;SDS_P2;PMS_P1;PMS_P2;Temp;Humidity;BMP_temperature;BMP_pressure;BME280_temperature;BME280_humidity;BME280_pressure;Samples;Min_cycle;Max_cycle;Signal;HPM_P1;HPM_P2
2022/04/30 00:02:44;;;;;;;6.35;1.45;;;;;;;12.27;67.40;100330.34;10366259;28;20054;-77
2022/04/30 00:07:44;;;;;;;3.40;1.75;;;;;;;11.64;68.56;100292.34;10362626;28;20041;-77
2022/04/30 00:12:45;;;;;;;5.10;1.58;;;;;;;12.43;69.96;100459.91;10374293;28;20057;-77
2022/04/30 00:17:46;;;;;;;6.68;2.22;;;;;;;11.02;70.21;100201.94;10374188;28;20057;-78
2022/04/30 00:22:47;;;;;;;3.55;1.40;;;;;;;10.58;69.55;100138.72;10373055;28;20084;-77
2022/04/30 00:27:48;;;;;;;8.80;1.88;;;;;;;11.26;69.33;100231.06;10372759;28;20061;-78
2022/04/30 00:32:49;;;;;;;3.58;1.70;;;;;;;11.38;69.52;100236.81;10373882;28;20042;-78
2022/04/30 00:37:50;;;;;;;3.97;2.17;;;;;;;11.10;70.60;100226.66;10373212;28;20072;-77
2022/04/30 00:42:51;;;;;;;2.92;1.60;;;;;;;11.78;71.81;100363.41;10372961;28;20048;-78
2022/04/30 00:47:52;;;;;;;4.65;1.50;;;;;;;11.33;71.44;100276.38;10372164;28;20063;-78
2022/04/30 00:52:55;;;;;;;5.22;1.55;;;;;;;11.57;71.29;100341.91;10373053;28;20406;-79
2022/04/30 00:58:01;;;;;;;4.37;1.80;;;;;;;10.36;71.95;100142.97;10373116;28;20119;-78
2022/04/30 01:03:02;;;;;;;3.25;1.30;;;;;;;11.34;71.63;100348.03;10372730;28;20490;-78
2022/04/30 01:08:04;;;;;;;8.85;1.80;;;;;;;12.00;72.23;100439.03;10372076;28;20461;-78
2022/04/30 01:13:06;;;;;;;7.13;2.10;;;;;;;11.22;72.38;100320.16;10372246;28;20049;-78
2022/04/30 01:18:08;;;;;;;6.25;2.40;;;;;;;11.15;73.04;100300.56;10374751;28;20049;-78
2022/04/30 01:23:10;;;;;;;6.93;2.15;;;;;;;11.70;73.54;100395.41;10380473;28;20457;-78
2022/04/30 01:28:12;;;;;;;6.68;2.08;;;;;;;11.26;74.14;100350.72;10380752;28;20405;-78
2022/04/30 01:38:32;;;;;;;6.25;1.95;;;;;;;11.31;74.43;100361.66;10379137;28;20038;-78
2022/04/30 01:43:33;;;;;;;6.72;2.15;;;;;;;11.49;74.14;100389.88;10378798;28;20501;-78
2022/04/30 01:48:36;;;;;;;12.02;2.63;;;;;;;11.08;74.94;100358.09;10379232;28;20406;-78
2022/04/30 01:53:39;;;;;;;9.30;2.10;;;;;;;10.93;75.87;100328.72;10379102;28;20042;-78
2022/04/30 01:58:40;;;;;;;4.88;1.92;;;;;;;11.29;75.72;100416.84;10379529;28;20085;-78
2022/04/30 02:03:41;;;;;;;5.65;2.40;;;;;;;10.74;76.59;100360.00;10378696;28;20528;-78
2022/04/30 02:08:41;;;;;;;5.70;2.20;;;;;;;10.83;76.52;100379.41;10361681;28;20069;-78
2022/04/30 02:13:52;;;;;;;10.57;2.60;;;;;;;9.43;77.51;100132.81;10379163;28;20037;-78
2022/04/30 02:18:55;;;;;;;8.93;2.50;;;;;;;10.35;76.89;100282.88;10379209;28;20413;-78
2022/04/30 02:23:58;;;;;;;7.20;2.63;;;;;;;11.41;77.34;100452.72;10377881;28;20042;-77
2022/04/30 02:28:59;;;;;;;7.28;2.40;;;;;;;11.45;76.85;100442.56;10377853;28;20045;-78
2022/04/30 02:34:00;;;;;;;11.38;2.70;;;;;;;11.16;77.01;100382.00;10378832;28;20044;-78
2022/04/30 02:39:00;;;;;;;13.23;2.70;;;;;;;11.79;77.07;100482.19;10377141;28;20038;-78
2022/04/30 02:44:04;;;;;;;8.57;2.97;;;;;;;11.98;76.69;100494.28;10377777;28;20041;-78
2022/04/30 02:49:05;;;;;;;10.13;2.93;;;;;;;12.11;76.90;100507.03;10377190;28;20146;-79
2022/04/30 02:54:06;;;;;;;7.10;2.92;;;;;;;11.58;76.29;100408.28;10376937;28;20134;-79
2022/04/30 03:04:26;;;;;;;10.95;4.30;;;;;;;12.37;75.55;100477.44;10377035;28;20045;-79
2022/04/30 03:09:27;;;;;;;25.13;4.30;;;;;;;11.63;76.21;100341.22;10376693;28;20152;-79
2022/04/30 03:14:28;;;;;;;9.77;3.05;;;;;;;11.78;75.59;100343.97;10375557;28;20073;-79
2022/04/30 03:24:48;;;;;;;9.18;3.20;;;;;;;12.52;75.44;100448.19;10376094;28;20088;-79
2022/04/30 03:29:49;;;;;;;7.25;2.70;;;;;;;10.63;75.49;100131.06;10375120;28;20433;-78
2022/04/30 03:34:51;;;;;;;9.00;3.08;;;;;;;11.92;75.13;100334.44;10374597;28;20045;-79
2022/04/30 03:39:52;;;;;;;9.13;2.75;;;;;;;12.36;73.65;100341.75;10374960;28;20042;-79
2022/04/30 03:44:53;;;;;;;8.40;2.70;;;;;;;13.89;72.95;100494.22;10374305;28;20042;-79
2022/04/30 03:49:54;;;;;;;6.75;2.63;;;;;;;13.93;71.07;100340.59;10374804;28;20115;-78
2022/04/30 03:54:55;;;;;;;10.02;2.13;;;;;;;15.64;67.14;100349.19;10373740;28;20065;-79
2022/04/30 03:59:55;;;;;;;7.20;2.38;;;;;;;16.57;65.33;100451.25;10373927;28;20030;-80
2022/04/30 04:04:56;;;;;;;12.27;2.83;;;;;;;17.23;61.67;100418.25;10373219;28;20056;-78
2022/04/30 04:09:57;;;;;;;8.02;2.60;;;;;;;17.66;61.15;100477.66;10359813;28;20068;-79
2022/04/30 04:20:18;;;;;;;15.48;2.08;;;;;;;17.39;60.73;100478.75;10370325;28;20382;-79
2022/04/30 04:30:38;;;;;;;6.15;1.95;;;;;;;16.71;61.38;100469.03;10373191;28;20049;-79
2022/04/30 04:35:39;;;;;;;4.93;2.15;;;;;;;16.27;61.00;100371.22;10373817;28;20041;-79
2022/04/30 04:40:40;;;;;;;15.27;2.47;;;;;;;16.56;61.01;100438.91;10372280;28;20108;-80
2022/04/30 04:45:41;;;;;;;5.85;1.67;;;;;;;16.06;61.65;100396.31;10373287;28;20045;-79
2022/04/30 04:50:43;;;;;;;8.80;2.03;;;;;;;16.86;60.97;100493.84;10372550;28;20103;-79
2022/04/30 04:55:44;;;;;;;7.35;2.08;;;;;;;16.09;59.68;100266.47;10372695;28;20037;-80
2022/04/30 05:00:46;;;;;;;9.13;1.80;;;;;;;18.29;58.39;100500.38;10371204;28;20485;-79
2022/04/30 05:05:48;;;;;;;8.15;1.77;;;;;;;17.81;58.28;100430.91;10372899;28;20509;-79
2022/04/30 05:10:49;;;;;;;8.73;2.70;;;;;;;17.85;58.24;100416.00;10371845;28;20046;-79
2022/04/30 05:15:49;;;;;;;6.78;2.25;;;;;;;16.53;58.14;100136.28;10372695;28;20049;-79
2022/04/30 05:20:50;;;;;;;7.57;2.75;;;;;;;18.11;58.66;100382.78;10372803;28;20046;-79
2022/04/30 05:25:51;;;;;;;12.05;2.65;;;;;;;19.03;59.05;100517.72;10372489;28;20049;-80
2022/04/30 05:30:52;;;;;;;8.55;2.60;;;;;;;17.76;58.94;100235.38;10371805;28;20124;-79
2022/04/30 05:35:53;;;;;;;7.93;2.75;;;;;;;18.44;60.00;100352.97;10372529;28;20042;-78
2022/04/30 05:40:54;;;;;;;8.57;3.00;;;;;;;17.75;60.78;100309.78;10372340;28;20532;-77
2022/04/30 05:45:55;;;;;;;7.20;2.55;;;;;;;18.72;60.35;100349.81;10353930;28;20043;-80
2022/04/30 05:50:56;;;;;;;6.97;2.25;;;;;;;18.70;59.45;100307.00;10371500;28;20042;-79
2022/04/30 05:55:57;;;;;;;7.00;2.50;;;;;;;18.93;59.89;100367.44;10370577;28;20405;-78
2022/04/30 06:00:58;;;;;;;7.40;2.55;;;;;;;19.61;59.54;100441.94;10357795;28;20045;-77
2022/04/30 06:05:59;;;;;;;5.47;2.67;;;;;;;19.46;58.83;100333.72;10375144;28;20049;-76
2022/04/30 06:11:01;;;;;;;7.07;2.08;;;;;;;19.70;57.38;100311.25;10378777;28;20057;-77
2022/04/30 06:16:02;;;;;;;9.65;2.90;;;;;;;20.80;57.73;100474.59;10379109;28;20046;-76
2022/04/30 06:21:03;;;;;;;16.13;2.95;;;;;;;20.13;57.04;100310.19;10377798;28;20048;-76
2022/04/30 06:26:03;;;;;;;9.85;2.75;;;;;;;21.38;56.62;100457.63;10378427;28;20234;-77
2022/04/30 06:31:04;;;;;;;9.77;2.97;;;;;;;20.83;55.58;100385.03;10377659;28;20088;-82
2022/04/30 06:36:05;;;;;;;10.88;3.00;;;;;;;19.91;56.38;100272.16;10377099;28;20510;-77
2022/04/30 06:41:06;;;;;;;9.95;2.90;;;;;;;21.04;56.44;100436.84;10377546;28;20084;-81
2022/04/30 06:46:07;;;;;;;9.32;2.90;;;;;;;21.30;55.12;100425.53;10377898;28;20065;-86
2022/04/30 06:51:08;;;;;;;13.73;3.25;;;;;;;20.53;54.78;100344.66;10360199;28;20132;-80
2022/04/30 07:01:37;;;;;;;15.68;3.10;;;;;;;21.72;54.46;100421.81;10376939;28;20100;-80
2022/04/30 07:06:38;;;;;;;15.20;3.58;;;;;;;21.91;53.67;100414.38;10377129;28;20521;-79
2022/04/30 07:11:39;;;;;;;13.95;3.60;;;;;;;21.77;53.55;100384.09;10376262;28;20080;-82
2022/04/30 07:16:40;;;;;;;12.35;3.40;;;;;;;22.26;52.62;100414.25;10375915;28;20108;-81
2022/04/30 07:21:41;;;;;;;11.43;3.70;;;;;;;22.02;53.01;100400.00;10375202;28;20084;-79
2022/04/30 07:26:42;;;;;;;34.72;5.07;;;;;;;22.23;52.41;100356.03;10375112;28;20056;-83
2022/04/30 07:31:43;;;;;;;19.50;3.75;;;;;;;22.50;51.71;100296.66;10370952;28;20069;-83
2022/04/30 07:36:44;;;;;;;25.35;4.70;;;;;;;21.61;50.75;100180.22;10366615;28;20401;-79
2022/04/30 07:41:45;;;;;;;9.95;4.18;;;;;;;22.08;51.14;100244.81;10369833;28;20046;-73
2022/04/30 07:46:45;;;;;;;18.98;4.40;;;;;;;21.92;51.96;100269.97;10369041;28;20059;-77
2022/04/30 07:51:58;;;;;;;24.23;5.50;;;;;;;22.41;52.18;100405.59;10369094;28;20042;-79
2022/04/30 07:56:59;;;;;;;13.80;4.50;;;;;;;22.28;52.07;100363.41;10365833;28;20410;-78
2022/04/30 08:02:01;;;;;;;20.40;5.93;;;;;;;22.35;52.07;100318.06;10368936;28;20041;-85
2022/04/30 08:07:01;;;;;;;12.48;4.75;;;;;;;22.56;51.88;100359.81;10365096;28;20069;-81
2022/04/30 08:12:02;;;;;;;31.70;5.53;;;;;;;23.07;51.46;100316.41;10367962;28;20192;-83
2022/04/30 08:17:03;;;;;;;19.83;6.10;;;;;;;23.61;50.07;100379.69;10368868;28;20052;-83
2022/04/30 08:22:06;;;;;;;14.48;6.53;;;;;;;23.26;49.26;100243.75;10367887;28;20088;-80
2022/04/30 08:27:06;;;;;;;20.67;6.03;;;;;;;23.75;48.39;100315.03;10367712;28;20061;-82
2022/04/30 08:32:08;;;;;;;16.10;7.97;;;;;;;23.61;48.54;100321.94;10365183;28;20531;-79
2022/04/30 08:37:08;;;;;;;20.40;7.68;;;;;;;23.61;48.63;100321.94;10367712;28;20085;-82
2022/04/30 08:42:09;;;;;;;17.23;7.45;;;;;;;24.08;48.45;100318.59;10366920;28;20561;-82
2022/04/30 08:47:13;;;;;;;20.08;7.53;;;;;;;23.66;47.65;100203.50;10368879;28;20034;-75
2022/04/30 08:52:15;;;;;;;25.20;6.90;;;;;;;24.48;47.48;100322.78;10367441;28;20065;-77
2022/04/30 08:57:15;;;;;;;14.10;6.50;;;;;;;23.86;47.71;100251.69;10366733;28;20441;-78
2022/04/30 09:02:16;;;;;;;15.30;6.18;;;;;;;23.64;48.97;100278.03;10364528;28;20049;-79
2022/04/30 09:07:20;;;;;;;18.95;6.88;;;;;;;23.33;49.68;100310.22;10366868;28;20409;-83
2022/04/30 09:12:20;;;;;;;13.50;5.95;;;;;;;22.90;50.49;100284.72;10367283;28;20533;-81
2022/04/30 09:17:24;;;;;;;14.52;5.63;;;;;;;23.14;50.89;100288.06;10369664;28;20038;-84
2022/04/30 09:22:30;;;;;;;15.30;5.75;;;;;;;23.83;50.30;100306.44;10367017;28;20038;-80
2022/04/30 09:27:32;;;;;;;18.17;7.53;;;;;;;23.86;49.00;100286.94;10366469;28;20042;-82
2022/04/30 09:32:32;;;;;;;15.48;6.95;;;;;;;23.54;49.78;100288.75;10367337;28;20046;-79
2022/04/30 09:37:46;;;;;;;13.57;6.82;;;;;;;22.44;50.21;100177.72;10366026;28;20038;-81
2022/04/30 09:42:46;;;;;;;;;;;;;;;23.60;49.19;100280.44;10373215;28;20053;-81
2022/04/30 09:47:48;;;;;;;21.70;8.48;;;;;;;23.73;49.20;100276.53;10372113;28;19918;-83
2022/04/30 09:58:11;;;;;;;17.52;7.05;;;;;;;23.12;48.92;100127.59;10372244;28;20037;-83
2022/04/30 10:03:13;;;;;;;17.50;7.53;;;;;;;23.90;48.78;100233.00;10373729;28;20579;-84
2022/04/30 10:08:14;;;;;;;21.83;10.02;;;;;;;23.62;48.14;100186.06;10374079;28;20037;-85
2022/04/30 10:13:36;;;;;;;19.60;9.77;;;;;;;23.57;48.55;100163.53;10374070;28;20062;-85
2022/04/30 10:18:42;;;;;;;25.50;8.20;;;;;;;23.76;48.14;100196.53;10367940;28;20054;-83
2022/04/30 10:23:44;;;;;;;34.20;9.20;;;;;;;23.62;48.97;100239.50;10368559;28;20452;-81
2022/04/30 10:28:44;;;;;;;19.13;11.00;;;;;;;24.04;48.16;100187.25;10372024;28;20049;-82
2022/04/30 10:33:49;;;;;;;20.30;9.57;;;;;;;23.19;47.90;100103.03;10372294;28;20038;-79
2022/04/30 10:39:02;;;;;;;20.05;11.70;;;;;;;22.89;47.75;100081.88;10372400;28;20042;-80
2022/04/30 10:44:04;;;;;;;19.90;11.55;;;;;;;24.31;47.01;100173.56;10370360;28;20033;-83
2022/04/30 10:49:08;;;;;;;17.23;9.07;;;;;;;24.75;46.32;100192.28;10373244;28;20042;-79
2022/04/30 10:54:18;;;;;;;20.95;10.05;;;;;;;24.57;46.46;100183.50;10373033;28;20034;-77
2022/04/30 10:59:24;;;;;;;22.10;9.07;;;;;;;25.24;45.61;100192.72;10374895;28;20053;-81
2022/04/30 11:04:25;;;;;;;19.45;9.80;;;;;;;24.11;45.44;100044.84;10375198;28;20509;-82
2022/04/30 11:09:26;;;;;;;17.42;9.85;;;;;;;24.12;46.49;100133.31;10357894;28;20069;-80
2022/04/30 11:14:28;;;;;;;18.33;8.73;;;;;;;23.85;47.26;100146.16;10355525;28;20099;-84
2022/04/30 11:19:29;;;;;;;19.70;8.32;;;;;;;24.19;47.38;100159.38;10375751;28;20041;-86
2022/04/30 11:24:32;;;;;;;14.38;7.32;;;;;;;24.15;47.18;100083.94;10374921;28;20046;-81
2022/04/30 11:29:35;;;;;;;14.77;7.47;;;;;;;24.04;46.07;100049.69;10375274;28;20045;-80
2022/04/30 11:34:38;;;;;;;14.43;7.20;;;;;;;24.75;46.19;100141.50;10357289;28;20034;-77
2022/04/30 11:39:39;;;;;;;12.23;7.07;;;;;;;24.93;45.93;100145.63;10375827;28;20060;-80
2022/04/30 11:44:40;;;;;;;19.13;7.97;;;;;;;24.85;45.83;100146.13;10374566;28;20045;-80
2022/04/30 11:49:41;;;;;;;16.67;6.97;;;;;;;24.36;46.00;100124.75;10374286;28;20080;-81
2022/04/30 11:54:43;;;;;;;13.57;6.25;;;;;;;24.55;45.91;100133.25;10374880;28;20042;-78
2022/04/30 11:59:44;;;;;;;21.63;9.38;;;;;;;24.37;45.06;100042.22;10374279;28;20046;-78
2022/04/30 12:04:44;;;;;;;24.83;9.32;;;;;;;24.37;45.52;100094.59;10373140;28;20413;-78
2022/04/30 12:09:50;;;;;;;21.05;8.75;;;;;;;24.39;45.70;100135.06;10355977;28;20182;-81
2022/04/30 12:14:56;;;;;;;25.35;14.10;;;;;;;22.96;45.74;99906.44;10371603;28;20418;-80
2022/04/30 12:25:28;;;;;;;22.77;12.43;;;;;;;24.34;44.96;100051.69;10372847;28;20049;-80
2022/04/30 12:30:32;;;;;;;21.25;10.23;;;;;;;25.12;44.07;100124.16;10372819;28;20053;-76
2022/04/30 12:35:40;;;;;;;19.38;10.85;;;;;;;24.74;44.03;100095.56;10356198;28;20045;-80
2022/04/30 12:40:44;;;;;;;19.90;11.02;;;;;;;24.74;45.03;100101.84;10372590;28;20046;-79
2022/04/30 12:45:46;;;;;;;21.80;12.15;;;;;;;24.86;44.82;100098.88;10372270;28;20061;-78
2022/04/30 12:50:47;;;;;;;22.10;8.63;;;;;;;24.86;44.30;100095.31;10372803;28;20038;-78
2022/04/30 12:55:50;;;;;;;17.60;10.13;;;;;;;24.94;44.22;100073.06;10372404;28;20041;-79
2022/04/30 13:00:53;;;;;;;21.05;9.48;;;;;;;24.53;44.13;99983.34;10373451;28;20052;-77
2022/04/30 13:05:54;;;;;;;19.30;9.40;;;;;;;24.70;44.39;100080.91;10342756;28;20046;-80
2022/04/30 13:16:14;;;;;;;18.23;8.27;;;;;;;23.81;45.43;100031.09;10343269;28;20042;-79
2022/04/30 13:21:15;;;;;;;16.70;8.55;;;;;;;23.88;45.91;100086.78;10354150;28;20050;-80
2022/04/30 13:26:16;;;;;;;17.20;7.93;;;;;;;23.78;45.78;100050.63;10382846;28;20516;-80
2022/04/30 13:31:17;;;;;;;23.60;9.93;;;;;;;23.56;45.72;99996.50;10382762;28;20038;-78
2022/04/30 13:36:18;;;;;;;16.17;8.43;;;;;;;23.89;45.51;100023.28;10383972;28;20045;-80
2022/04/30 13:41:19;;;;;;;16.05;7.45;;;;;;;23.85;46.50;100051.22;10363756;28;20042;-80
2022/04/30 13:46:20;;;;;;;13.00;7.13;;;;;;;23.35;46.81;100019.97;10372349;28;20125;-82
2022/04/30 13:51:21;;;;;;;11.98;7.07;;;;;;;23.26;46.99;100016.09;10380430;28;20515;-77
2022/04/30 13:56:22;;;;;;;13.88;7.75;;;;;;;23.06;47.26;99990.47;10359053;28;20057;-77
2022/04/30 14:01:23;;;;;;;20.65;7.20;;;;;;;23.40;47.37;100066.91;10376773;28;20045;-79
2022/04/30 14:06:24;;;;;;;14.93;7.38;;;;;;;23.28;48.09;100079.00;10372594;28;20052;-78
2022/04/30 14:11:25;;;;;;;15.77;7.25;;;;;;;23.19;48.24;100065.91;10376648;28;20054;-79
2022/04/30 14:16:26;;;;;;;13.85;6.78;;;;;;;23.20;47.80;100067.53;10375632;28;20041;-79
2022/04/30 14:21:27;;;;;;;15.68;6.72;;;;;;;22.50;47.92;99982.66;10376545;28;20049;-79
2022/04/30 14:26:28;;;;;;;16.02;6.93;;;;;;;22.96;47.75;100071.66;10374674;28;20045;-79
2022/04/30 14:31:29;;;;;;;19.80;7.40;;;;;;;22.82;47.89;100054.16;10377960;28;20034;-78
2022/04/30 14:36:33;;;;;;;20.20;7.47;;;;;;;22.59;48.35;100039.84;10376424;28;20132;-78
2022/04/30 14:41:34;;;;;;;25.42;7.93;;;;;;;22.57;48.96;100044.69;10377421;28;20061;-78
2022/04/30 14:46:35;;;;;;;16.23;6.50;;;;;;;22.54;49.09;100064.97;10377098;28;20494;-78
2022/04/30 14:51:36;;;;;;;15.73;6.10;;;;;;;22.27;49.25;100035.16;10377088;28;20048;-77
2022/04/30 14:56:37;;;;;;;25.40;6.20;;;;;;;21.57;49.61;99931.25;10374651;28;20505;-78
2022/04/30 15:01:38;;;;;;;21.88;5.97;;;;;;;22.05;50.02;100012.69;10376819;28;20123;-78
2022/04/30 15:06:39;;;;;;;25.25;6.25;;;;;;;22.29;50.47;100061.97;10376660;28;20144;-76
2022/04/30 15:11:40;;;;;;;26.48;6.80;;;;;;;21.60;50.70;99974.00;10376534;28;20167;-79
2022/04/30 15:16:41;;;;;;;22.20;4.90;;;;;;;22.09;51.09;100084.16;10376591;28;20037;-79
2022/04/30 15:21:42;;;;;;;22.17;6.00;;;;;;;22.02;51.57;100086.22;10375497;28;20042;-79
2022/04/30 15:26:43;;;;;;;21.42;4.88;;;;;;;20.81;51.62;99912.00;10376487;28;20128;-81
2022/04/30 15:31:44;;;;;;;17.73;4.05;;;;;;;20.98;51.99;99961.44;10375831;28;20449;-77
2022/04/30 15:36:45;;;;;;;14.88;3.80;;;;;;;21.74;52.29;100087.97;10374578;28;20140;-79
2022/04/30 15:41:45;;;;;;;10.38;3.92;;;;;;;21.67;52.49;100091.94;10373586;28;20133;-81
2022/04/30 15:52:07;;;;;;;11.02;4.50;;;;;;;20.70;53.42;99974.97;10375633;28;20049;-80
2022/04/30 15:57:08;;;;;;;19.77;5.20;;;;;;;20.64;53.84;99995.69;10374320;28;20502;-79
2022/04/30 16:02:09;;;;;;;26.52;5.18;;;;;;;20.24;54.45;99960.63;10374217;28;20053;-79
2022/04/30 16:07:10;;;;;;;26.15;5.00;;;;;;;20.97;54.30;100100.22;10374877;28;20053;-81
2022/04/30 16:12:11;;;;;;;19.30;4.60;;;;;;;20.02;54.59;99973.97;10356668;28;20395;-77
2022/04/30 16:17:12;;;;;;;30.67;5.10;;;;;;;20.06;54.89;100002.91;10373469;28;20045;-77
2022/04/30 16:22:13;;;;;;;15.48;4.35;;;;;;;20.54;55.01;100116.09;10373397;28;20045;-77
2022/04/30 16:27:14;;;;;;;12.90;3.08;;;;;;;20.08;55.46;100063.88;10356785;28;20034;-79
2022/04/30 16:32:16;;;;;;;10.57;3.03;;;;;;;20.21;55.94;100106.75;10373718;28;20053;-78
2022/04/30 16:37:16;;;;;;;11.77;3.10;;;;;;;19.63;56.09;100040.22;10373438;28;20038;-81
2022/04/30 16:42:17;;;;;;;18.02;6.10;;;;;;;19.88;56.77;100118.97;10373005;28;20038;-79
2022/04/30 16:47:18;;;;;;;14.82;3.80;;;;;;;19.81;57.01;100142.53;10363432;28;20447;-79
2022/04/30 16:52:25;;;;;;;23.77;7.30;;;;;;;19.61;57.39;100129.38;10411122;28;20033;-78
2022/04/30 16:57:26;;;;;;;32.40;11.95;;;;;;;19.28;57.79;100097.56;10411968;28;20592;-76
2022/04/30 17:02:27;;;;;;;19.02;5.78;;;;;;;19.35;57.91;100141.38;10413257;28;20399;-78
2022/04/30 17:07:33;;;;;;;17.42;4.70;;;;;;;19.45;58.11;100157.00;10373958;28;20042;-78
2022/04/30 17:12:35;;;;;;;18.40;4.38;;;;;;;19.37;58.40;100185.06;10372145;28;20058;-79
2022/04/30 17:17:41;;;;;;;18.38;3.50;;;;;;;18.40;58.39;100031.72;10372340;28;20042;-77
2022/04/30 17:22:45;;;;;;;18.95;3.85;;;;;;;18.41;58.85;100049.50;10368006;28;20045;-74
2022/04/30 17:27:47;;;;;;;;;;;;;;;19.17;59.37;100171.88;10360709;28;20050;-77
2022/04/30 17:38:07;;;;;;;12.70;4.03;;;;;;;18.05;59.45;100048.47;10331937;28;20037;-78
2022/04/30 17:43:09;;;;;;;8.63;3.78;;;;;;;18.76;59.95;100178.03;10331006;28;20046;-76
2022/04/30 17:48:15;;;;;;;13.13;3.95;;;;;;;18.70;60.40;100177.84;10354198;28;20050;-76
2022/04/30 17:53:16;;;;;;;11.98;3.90;;;;;;;18.67;60.09;100175.59;10367124;28;20076;-76
2022/04/30 17:58:17;;;;;;;10.45;3.78;;;;;;;18.66;60.27;100171.25;10369519;28;20068;-76
2022/04/30 18:03:17;;;;;;;8.73;2.92;;;;;;;18.66;60.21;100173.13;10375855;28;20070;-79
2022/04/30 18:08:19;;;;;;;9.57;3.17;;;;;;;18.60;60.46;100182.09;10377618;28;20045;-75
2022/04/30 18:13:20;;;;;;;9.25;3.10;;;;;;;18.54;60.82;100170.38;10377646;28;20069;-79
2022/04/30 18:18:21;;;;;;;12.93;3.63;;;;;;;18.37;60.73;100162.09;10374818;28;20414;-76
2022/04/30 18:23:21;;;;;;;8.23;2.83;;;;;;;18.45;60.76;100177.91;10376597;28;20057;-76
2022/04/30 18:28:22;;;;;;;6.53;2.53;;;;;;;17.56;60.28;100039.47;10374903;28;20034;-79
2022/04/30 18:33:23;;;;;;;12.40;2.97;;;;;;;18.32;60.32;100169.19;10358505;28;20030;-76
2022/04/30 18:38:24;;;;;;;12.65;3.13;;;;;;;18.15;60.36;100164.38;10375150;28;20475;-77
2022/04/30 18:43:25;;;;;;;24.88;3.47;;;;;;;18.05;60.65;100164.06;10367107;28;20050;-76
2022/04/30 18:48:26;;;;;;;13.88;2.90;;;;;;;17.14;60.74;100036.53;10374902;28;20046;-76
2022/04/30 18:53:27;;;;;;;10.93;2.70;;;;;;;17.20;60.55;100061.63;10375862;28;20042;-76
2022/04/30 19:04:00;;;;;;;6.73;2.27;;;;;;;17.77;60.84;100183.31;10350640;28;20060;-76
2022/04/30 19:09:01;;;;;;;6.18;2.28;;;;;;;17.07;61.15;100068.75;10368598;28;20436;-78
2022/04/30 19:14:06;;;;;;;6.85;2.50;;;;;;;17.71;61.64;100171.56;10366596;28;20041;-76
2022/04/30 19:19:07;;;;;;;10.43;2.58;;;;;;;17.43;61.55;100128.19;10361686;28;20088;-77
2022/04/30 19:24:08;;;;;;;7.85;2.40;;;;;;;17.74;61.60;100176.50;10363518;28;20053;-76
2022/04/30 19:29:13;;;;;;;10.30;2.35;;;;;;;17.63;61.65;100155.72;10376932;28;20057;-76
2022/04/30 19:34:13;;;;;;;8.30;2.63;;;;;;;17.75;62.18;100177.31;10365853;28;20045;-79
2022/04/30 19:39:17;;;;;;;8.63;3.03;;;;;;;17.64;62.73;100167.28;10369541;28;20041;-76
2022/04/30 19:44:19;;;;;;;9.38;3.17;;;;;;;16.95;62.68;100056.25;10357945;28;20050;-74
2022/04/30 19:49:20;;;;;;;7.10;2.75;;;;;;;17.58;63.31;100167.09;10335512;28;20076;-77
2022/04/30 19:54:21;;;;;;;6.40;2.85;;;;;;;16.96;63.43;100072.16;10338516;28;20048;-76
2022/04/30 19:59:22;;;;;;;12.55;3.33;;;;;;;17.30;63.66;100124.56;10374988;28;20482;-76
2022/04/30 20:04:23;;;;;;;6.95;2.80;;;;;;;17.19;64.00;100103.78;10371024;28;20108;-75
2022/04/30 20:09:24;;;;;;;6.82;3.20;;;;;;;17.46;64.21;100154.59;10356723;28;20062;-75
2022/04/30 20:19:45;;;;;;;11.13;2.85;;;;;;;16.10;64.88;99936.69;10373985;28;20257;-77
2022/04/30 20:24:47;;;;;;;7.72;2.92;;;;;;;16.76;64.93;100040.06;10372807;28;20516;-75
2022/04/30 20:29:49;;;;;;;8.38;3.05;;;;;;;16.71;65.16;100025.63;10373506;28;20065;-75
2022/04/30 20:40:10;;;;;;;6.25;2.85;;;;;;;16.94;65.37;100047.38;10373036;28;20041;-76
2022/04/30 20:45:12;;;;;;;11.15;2.70;;;;;;;16.49;65.40;99964.31;10373651;28;20121;-75
2022/04/30 20:50:14;;;;;;;10.40;3.40;;;;;;;17.39;65.95;100106.31;10355055;28;20406;-76
2022/04/30 20:55:15;;;;;;;9.80;2.83;;;;;;;16.59;66.17;100002.19;10372724;28;20045;-74
2022/04/30 21:00:16;;;;;;;7.22;2.80;;;;;;;17.18;67.03;100094.09;10372410;28;20482;-76
2022/04/30 21:05:17;;;;;;;11.60;3.20;;;;;;;16.99;67.36;100081.59;10372461;28;20041;-76
2022/04/30 21:10:18;;;;;;;12.43;3.00;;;;;;;16.88;67.70;100081.28;10373214;28;20512;-75
2022/04/30 21:15:18;;;;;;;8.35;3.17;;;;;;;16.76;68.53;100074.13;10371686;28;20048;-75
2022/04/30 21:20:19;;;;;;;7.65;3.10;;;;;;;16.32;68.63;100020.25;10371635;28;20050;-75
2022/04/30 21:25:20;;;;;;;9.18;3.70;;;;;;;16.64;68.91;100098.09;10371973;28;20116;-75
2022/04/30 21:30:22;;;;;;;10.73;3.25;;;;;;;16.42;69.21;100060.00;10371819;28;20556;-75
2022/04/30 21:35:23;;;;;;;11.40;4.45;;;;;;;15.88;69.38;99981.69;10375885;28;20069;-75
2022/04/30 21:45:44;;;;;;;9.32;4.53;;;;;;;16.52;70.10;100108.66;10379880;28;20046;-75
2022/04/30 21:50:45;;;;;;;9.65;5.30;;;;;;;16.48;70.73;100101.25;10379498;28;20493;-75
2022/04/30 22:01:18;;;;;;;13.73;5.32;;;;;;;16.41;72.39;100114.69;10379783;28;20444;-75
2022/04/30 22:06:19;;;;;;;14.93;5.80;;;;;;;16.36;71.44;100109.97;10379689;28;20030;-75
2022/04/30 22:11:24;;;;;;;8.30;5.70;;;;;;;16.25;72.59;100115.16;10378690;28;20054;-75
2022/04/30 22:16:25;;;;;;;11.98;5.82;;;;;;;16.02;72.57;100115.63;10378121;28;20568;-75
2022/04/30 22:21:28;;;;;;;10.02;6.05;;;;;;;15.55;73.09;100051.34;10377979;28;20037;-74
2022/04/30 22:26:28;;;;;;;14.18;6.90;;;;;;;15.17;73.64;99979.75;10378486;28;20516;-75
2022/04/30 22:31:29;;;;;;;12.30;7.43;;;;;;;16.18;74.34;100133.91;10378187;28;20042;-75
2022/04/30 22:36:30;;;;;;;12.00;5.65;;;;;;;16.27;73.51;100140.69;10378999;28;20052;-75
2022/04/30 22:47:04;;;;;;;9.30;5.18;;;;;;;16.27;73.40;100135.31;10354914;28;20141;-74
2022/04/30 22:52:05;;;;;;;11.52;5.18;;;;;;;15.83;73.29;100039.63;10376720;28;20425;-74
2022/04/30 22:57:07;;;;;;;10.82;5.38;;;;;;;16.52;73.20;100135.47;10377255;28;20073;-74
2022/04/30 23:02:08;;;;;;;11.43;5.72;;;;;;;15.76;73.42;100020.88;10376373;28;20057;-74
2022/04/30 23:07:08;;;;;;;13.40;5.45;;;;;;;16.43;73.73;100140.25;10377152;28;20042;-75
2022/04/30 23:12:09;;;;;;;10.98;5.38;;;;;;;16.29;74.50;100135.94;10377116;28;20058;-75
2022/04/30 23:17:10;;;;;;;11.90;5.03;;;;;;;15.91;75.13;100109.03;10376477;28;20096;-75
2022/04/30 23:22:11;;;;;;;10.25;5.15;;;;;;;15.87;75.47;100113.97;10375690;28;20046;-75
2022/04/30 23:27:12;;;;;;;10.45;5.20;;;;;;;15.89;75.48;100133.34;10375541;28;20128;-74
2022/04/30 23:32:13;;;;;;;9.70;4.78;;;;;;;15.86;75.74;100139.13;10376306;28;20095;-75
2022/04/30 23:37:14;;;;;;;9.20;4.70;;;;;;;15.12;75.91;100018.88;10368021;28;20072;-75
2022/04/30 23:42:14;;;;;;;8.32;4.70;;;;;;;15.86;76.22;100147.16;10374949;28;20053;-75
2022/04/30 23:47:15;;;;;;;9.18;4.78;;;;;;;14.84;76.78;100004.66;10375154;28;20038;-76
2022/04/30 23:52:16;;;;;;;10.93;4.95;;;;;;;15.43;77.10;100119.94;10375387;28;20132;-75
2022/04/30 23:57:17;;;;;;;8.13;4.70;;;;;;;15.47;77.59;100159.50;10373155;28;20124;-74
